sensor_id;sensor_type;location;lat;lon;timestamp;pressure;altitude;pressure_sealevel;temperature;humidity
44140;BME280;29803;51.048;4.686;2023-04-27T00:00:24;102013.22;;;3.95;100.00
44140;BME280;29803;51.048;4.686;2023-04-27T00:02:55;102014.34;;;3.90;100.00
44140;BME280;29803;51.048;4.686;2023-04-27T00:05:25;102009.25;;;3.73;100.00
44140;BME280;29803;51.048;4.686;2023-04-27T00:07:56;102009.31;;;3.57;100.00
44140;BME280;29803;51.048;4.686;2023-04-27T00:10:26;102006.25;;;3.49;100.00
44140;BME280;29803;51.048;4.686;2023-04-27T00:12:57;102005.84;;;3.41;100.00
44140;BME280;29803;51.048;4.686;2023-04-27T00:15:27;102006.91;;;3.38;100.00
44140;BME280;29803;51.048;4.686;2023-04-27T00:17:58;102002.47;;;3.39;100.00
44140;BME280;29803;51.048;4.686;2023-04-27T00:20:28;102009.66;;;3.37;100.00
44140;BME280;29803;51.048;4.686;2023-04-27T00:22:58;102006.16;;;3.36;100.00
44140;BME280;29803;51.048;4.686;2023-04-27T00:25:29;102016.84;;;3.35;100.00
44140;BME280;29803;51.048;4.686;2023-04-27T00:27:59;102013.34;;;3.34;100.00
44140;BME280;29803;51.048;4.686;2023-04-27T00:30:30;102021.50;;;3.31;100.00
44140;BME280;29803;51.048;4.686;2023-04-27T00:33:00;102012.00;;;3.27;100.00
44140;BME280;29803;51.048;4.686;2023-04-27T00:35:31;102013.88;;;3.25;100.00
44140;BME280;29803;51.048;4.686;2023-04-27T00:38:01;102019.00;;;3.28;100.00
44140;BME280;29803;51.048;4.686;2023-04-27T00:40:32;102009.25;;;3.29;100.00
44140;BME280;29803;51.048;4.686;2023-04-27T00:43:02;102008.78;;;3.22;100.00
44140;BME280;29803;51.048;4.686;2023-04-27T00:45:35;102008.19;;;3.17;100.00
44140;BME280;29803;51.048;4.686;2023-04-27T00:48:09;102009.31;;;3.13;100.00
44140;BME280;29803;51.048;4.686;2023-04-27T00:50:40;102008.47;;;3.13;100.00
44140;BME280;29803;51.048;4.686;2023-04-27T00:53:10;102013.94;;;3.09;100.00
44140;BME280;29803;51.048;4.686;2023-04-27T00:55:41;102021.72;;;3.13;100.00
44140;BME280;29803;51.048;4.686;2023-04-27T00:58:11;102017.44;;;3.10;100.00
44140;BME280;29803;51.048;4.686;2023-04-27T01:00:41;102011.97;;;3.13;100.00
44140;BME280;29803;51.048;4.686;2023-04-27T01:03:12;102009.91;;;3.18;100.00
44140;BME280;29803;51.048;4.686;2023-04-27T01:05:42;102006.19;;;3.21;100.00
44140;BME280;29803;51.048;4.686;2023-04-27T01:08:13;102008.78;;;3.22;100.00
44140;BME280;29803;51.048;4.686;2023-04-27T01:10:43;102005.34;;;3.20;100.00
44140;BME280;29803;51.048;4.686;2023-04-27T01:13:14;101997.38;;;3.20;100.00
44140;BME280;29803;51.048;4.686;2023-04-27T01:15:44;101995.78;;;3.18;100.00
44140;BME280;29803;51.048;4.686;2023-04-27T01:18:15;101996.72;;;3.17;100.00
44140;BME280;29803;51.048;4.686;2023-04-27T01:20:56;101994.34;;;3.12;100.00
44140;BME280;29803;51.048;4.686;2023-04-27T01:23:26;101993.56;;;3.10;100.00
44140;BME280;29803;51.048;4.686;2023-04-27T01:25:56;101994.69;;;3.06;100.00
44140;BME280;29803;51.048;4.686;2023-04-27T01:28:47;101997.53;;;3.03;100.00
44140;BME280;29803;51.048;4.686;2023-04-27T01:31:34;101994.31;;;2.98;100.00
44140;BME280;29803;51.048;4.686;2023-04-27T01:34:07;101988.41;;;2.93;100.00
44140;BME280;29803;51.048;4.686;2023-04-27T01:36:37;101992.19;;;2.89;100.00
44140;BME280;29803;51.048;4.686;2023-04-27T01:39:07;101990.63;;;2.84;100.00
44140;BME280;29803;51.048;4.686;2023-04-27T01:41:39;101990.91;;;2.80;100.00
44140;BME280;29803;51.048;4.686;2023-04-27T01:44:09;101985.78;;;2.77;100.00
44140;BME280;29803;51.048;4.686;2023-04-27T01:46:41;101986.72;;;2.76;100.00
44140;BME280;29803;51.048;4.686;2023-04-27T01:49:11;101976.22;;;2.74;100.00
44140;BME280;29803;51.048;4.686;2023-04-27T01:51:42;101976.41;;;2.71;100.00
44140;BME280;29803;51.048;4.686;2023-04-27T01:54:12;101980.81;;;2.71;100.00
44140;BME280;29803;51.048;4.686;2023-04-27T01:56:49;101981.88;;;2.68;100.00
44140;BME280;29803;51.048;4.686;2023-04-27T01:59:19;101982.81;;;2.67;100.00
44140;BME280;29803;51.048;4.686;2023-04-27T02:01:50;101986.47;;;2.65;100.00
44140;BME280;29803;51.048;4.686;2023-04-27T02:04:20;101981.28;;;2.63;100.00
44140;BME280;29803;51.048;4.686;2023-04-27T02:06:51;101971.53;;;2.64;100.00
44140;BME280;29803;51.048;4.686;2023-04-27T02:09:27;101967.28;;;2.61;100.00
44140;BME280;29803;51.048;4.686;2023-04-27T02:11:57;101971.44;;;2.65;100.00
44140;BME280;29803;51.048;4.686;2023-04-27T02:14:28;101980.06;;;2.69;100.00
44140;BME280;29803;51.048;4.686;2023-04-27T02:16:58;101967.66;;;2.69;100.00
44140;BME280;29803;51.048;4.686;2023-04-27T02:19:29;101975.53;;;2.71;100.00
44140;BME280;29803;51.048;4.686;2023-04-27T02:21:59;101985.22;;;2.72;100.00
44140;BME280;29803;51.048;4.686;2023-04-27T02:24:31;101973.75;;;2.71;100.00
44140;BME280;29803;51.048;4.686;2023-04-27T02:27:01;101979.97;;;2.70;100.00
44140;BME280;29803;51.048;4.686;2023-04-27T02:29:33;101973.91;;;2.68;100.00
44140;BME280;29803;51.048;4.686;2023-04-27T02:32:06;101978.47;;;2.66;100.00
44140;BME280;29803;51.048;4.686;2023-04-27T02:34:37;101974.94;;;2.66;100.00
44140;BME280;29803;51.048;4.686;2023-04-27T02:37:07;101962.63;;;2.65;100.00
44140;BME280;29803;51.048;4.686;2023-04-27T02:39:37;101966.13;;;2.65;100.00
44140;BME280;29803;51.048;4.686;2023-04-27T02:42:08;101967.94;;;2.65;100.00
44140;BME280;29803;51.048;4.686;2023-04-27T02:44:38;101963.69;;;2.62;100.00
44140;BME280;29803;51.048;4.686;2023-04-27T02:47:09;101959.50;;;2.58;100.00
44140;BME280;29803;51.048;4.686;2023-04-27T02:49:40;101961.28;;;2.57;100.00
44140;BME280;29803;51.048;4.686;2023-04-27T02:52:10;101967.44;;;2.58;100.00
44140;BME280;29803;51.048;4.686;2023-04-27T02:54:41;101962.25;;;2.56;100.00
44140;BME280;29803;51.048;4.686;2023-04-27T02:57:11;101966.66;;;2.56;100.00
44140;BME280;29803;51.048;4.686;2023-04-27T02:59:41;101973.00;;;2.53;100.00
44140;BME280;29803;51.048;4.686;2023-04-27T03:02:12;101979.31;;;2.51;100.00
44140;BME280;29803;51.048;4.686;2023-04-27T03:04:42;101977.84;;;2.45;100.00
44140;BME280;29803;51.048;4.686;2023-04-27T03:07:12;101987.78;;;2.42;100.00
44140;BME280;29803;51.048;4.686;2023-04-27T03:09:43;101983.75;;;2.34;100.00
44140;BME280;29803;51.048;4.686;2023-04-27T03:12:13;101976.16;;;2.28;100.00
44140;BME280;29803;51.048;4.686;2023-04-27T03:14:43;101983.50;;;2.23;100.00
44140;BME280;29803;51.048;4.686;2023-04-27T03:17:14;101971.28;;;2.21;100.00
44140;BME280;29803;51.048;4.686;2023-04-27T03:19:45;101971.28;;;2.21;100.00
44140;BME280;29803;51.048;4.686;2023-04-27T03:22:16;101986.31;;;2.20;100.00
44140;BME280;29803;51.048;4.686;2023-04-27T03:24:46;101995.41;;;2.16;100.00
44140;BME280;29803;51.048;4.686;2023-04-27T03:27:17;101990.25;;;2.13;100.00
44140;BME280;29803;51.048;4.686;2023-04-27T03:29:49;101989.50;;;2.11;100.00
44140;BME280;29803;51.048;4.686;2023-04-27T03:32:20;101991.34;;;2.09;100.00
44140;BME280;29803;51.048;4.686;2023-04-27T03:34:51;101987.00;;;2.08;100.00
44140;BME280;29803;51.048;4.686;2023-04-27T03:37:22;101989.81;;;2.05;100.00
44140;BME280;29803;51.048;4.686;2023-04-27T03:39:52;101992.78;;;1.99;100.00
44140;BME280;29803;51.048;4.686;2023-04-27T03:42:23;101992.09;;;1.95;100.00
44140;BME280;29803;51.048;4.686;2023-04-27T03:44:53;101993.28;;;1.90;100.00
44140;BME280;29803;51.048;4.686;2023-04-27T03:47:24;102002.41;;;1.84;100.00
44140;BME280;29803;51.048;4.686;2023-04-27T03:49:54;101995.50;;;1.81;100.00
44140;BME280;29803;51.048;4.686;2023-04-27T03:52:24;101990.44;;;1.77;100.00
44140;BME280;29803;51.048;4.686;2023-04-27T03:54:55;102002.97;;;1.73;100.00
44140;BME280;29803;51.048;4.686;2023-04-27T03:57:26;101996.94;;;1.71;100.00
44140;BME280;29803;51.048;4.686;2023-04-27T03:59:56;101999.63;;;1.70;100.00
44140;BME280;29803;51.048;4.686;2023-04-27T04:02:26;101997.78;;;1.72;100.00
44140;BME280;29803;51.048;4.686;2023-04-27T04:04:57;102000.44;;;1.72;100.00
44140;BME280;29803;51.048;4.686;2023-04-27T04:07:27;101997.69;;;1.73;100.00
44140;BME280;29803;51.048;4.686;2023-04-27T04:09:57;101992.53;;;1.88;100.00
44140;BME280;29803;51.048;4.686;2023-04-27T04:12:27;101991.44;;;1.92;100.00
44140;BME280;29803;51.048;4.686;2023-04-27T04:14:58;101996.63;;;1.93;100.00
44140;BME280;29803;51.048;4.686;2023-04-27T04:17:28;101990.38;;;1.94;100.00
44140;BME280;29803;51.048;4.686;2023-04-27T04:20:00;101988.53;;;1.96;100.00
44140;BME280;29803;51.048;4.686;2023-04-27T04:22:31;101991.25;;;1.95;100.00
44140;BME280;29803;51.048;4.686;2023-04-27T04:25:01;101997.63;;;1.91;100.00
44140;BME280;29803;51.048;4.686;2023-04-27T04:27:32;102000.59;;;1.85;100.00
44140;BME280;29803;51.048;4.686;2023-04-27T04:30:03;102009.59;;;1.82;100.00
44140;BME280;29803;51.048;4.686;2023-04-27T04:32:35;102000.78;;;1.81;100.00
44140;BME280;29803;51.048;4.686;2023-04-27T04:38:23;102012.91;;;1.86;100.00
44140;BME280;29803;51.048;4.686;2023-04-27T04:40:54;102006.69;;;1.87;100.00
44140;BME280;29803;51.048;4.686;2023-04-27T04:43:24;102003.88;;;1.90;100.00
44140;BME280;29803;51.048;4.686;2023-04-27T04:45:54;102014.44;;;1.90;100.00
44140;BME280;29803;51.048;4.686;2023-04-27T04:48:25;102012.66;;;1.90;100.00
44140;BME280;29803;51.048;4.686;2023-04-27T04:50:55;102013.59;;;1.89;100.00
44140;BME280;29803;51.048;4.686;2023-04-27T04:53:26;102018.03;;;1.89;100.00
44140;BME280;29803;51.048;4.686;2023-04-27T04:55:56;102024.19;;;1.89;100.00
44140;BME280;29803;51.048;4.686;2023-04-27T04:58:27;102023.19;;;1.92;100.00
44140;BME280;29803;51.048;4.686;2023-04-27T05:00:57;102017.72;;;1.95;100.00
44140;BME280;29803;51.048;4.686;2023-04-27T05:03:28;102014.06;;;1.97;100.00
44140;BME280;29803;51.048;4.686;2023-04-27T05:05:58;102020.97;;;2.00;100.00
44140;BME280;29803;51.048;4.686;2023-04-27T05:08:28;102022.50;;;2.04;100.00
44140;BME280;29803;51.048;4.686;2023-04-27T05:10:59;102030.22;;;2.08;100.00
44140;BME280;29803;51.048;4.686;2023-04-27T05:13:29;102026.38;;;2.14;100.00
44140;BME280;29803;51.048;4.686;2023-04-27T05:16:02;102034.81;;;2.21;100.00
44140;BME280;29803;51.048;4.686;2023-04-27T05:18:33;102032.53;;;2.30;100.00
44140;BME280;29803;51.048;4.686;2023-04-27T05:21:03;102034.78;;;2.38;100.00
44140;BME280;29803;51.048;4.686;2023-04-27T05:23:34;102041.28;;;2.48;100.00
44140;BME280;29803;51.048;4.686;2023-04-27T05:28:52;102028.63;;;2.69;100.00
44140;BME280;29803;51.048;4.686;2023-04-27T05:31:23;102036.81;;;2.80;100.00
44140;BME280;29803;51.048;4.686;2023-04-27T05:33:53;102035.19;;;2.94;100.00
44140;BME280;29803;51.048;4.686;2023-04-27T05:36:23;102047.72;;;3.06;100.00
44140;BME280;29803;51.048;4.686;2023-04-27T05:38:54;102042.47;;;3.20;100.00
44140;BME280;29803;51.048;4.686;2023-04-27T05:41:25;102044.41;;;3.32;100.00
44140;BME280;29803;51.048;4.686;2023-04-27T05:43:55;102042.56;;;3.49;100.00
44140;BME280;29803;51.048;4.686;2023-04-27T05:46:26;102041.53;;;3.66;100.00
44140;BME280;29803;51.048;4.686;2023-04-27T05:48:56;102051.53;;;3.90;100.00
44140;BME280;29803;51.048;4.686;2023-04-27T05:51:26;102053.06;;;4.37;100.00
44140;BME280;29803;51.048;4.686;2023-04-27T05:53:57;102047.47;;;4.96;100.00
44140;BME280;29803;51.048;4.686;2023-04-27T05:56:30;102051.16;;;5.48;100.00
44140;BME280;29803;51.048;4.686;2023-04-27T05:59:01;102048.41;;;5.87;100.00
44140;BME280;29803;51.048;4.686;2023-04-27T06:01:32;102042.75;;;6.30;100.00
44140;BME280;29803;51.048;4.686;2023-04-27T06:04:03;102036.38;;;6.93;100.00
44140;BME280;29803;51.048;4.686;2023-04-27T06:06:33;102033.06;;;7.49;100.00
44140;BME280;29803;51.048;4.686;2023-04-27T06:09:04;102035.69;;;8.07;100.00
44140;BME280;29803;51.048;4.686;2023-04-27T06:11:34;102036.06;;;8.47;100.00
44140;BME280;29803;51.048;4.686;2023-04-27T06:14:06;102038.34;;;8.74;100.00
44140;BME280;29803;51.048;4.686;2023-04-27T06:16:37;102042.69;;;8.86;100.00
44140;BME280;29803;51.048;4.686;2023-04-27T06:19:07;102039.69;;;8.79;100.00
44140;BME280;29803;51.048;4.686;2023-04-27T06:21:38;102034.91;;;8.83;100.00
44140;BME280;29803;51.048;4.686;2023-04-27T06:24:08;102025.69;;;8.76;100.00
44140;BME280;29803;51.048;4.686;2023-04-27T06:26:38;102037.38;;;8.75;100.00
44140;BME280;29803;51.048;4.686;2023-04-27T06:29:09;102038.00;;;9.11;100.00
44140;BME280;29803;51.048;4.686;2023-04-27T06:31:39;102036.47;;;9.29;100.00
44140;BME280;29803;51.048;4.686;2023-04-27T06:34:10;102041.09;;;9.69;100.00
44140;BME280;29803;51.048;4.686;2023-04-27T06:36:40;102034.25;;;9.76;100.00
44140;BME280;29803;51.048;4.686;2023-04-27T06:39:11;102035.56;;;9.60;100.00
44140;BME280;29803;51.048;4.686;2023-04-27T06:41:41;102043.72;;;9.80;100.00
44140;BME280;29803;51.048;4.686;2023-04-27T06:44:11;102041.88;;;9.80;100.00
44140;BME280;29803;51.048;4.686;2023-04-27T06:46:42;102037.03;;;9.95;100.00
44140;BME280;29803;51.048;4.686;2023-04-27T06:49:12;102027.41;;;9.93;100.00
44140;BME280;29803;51.048;4.686;2023-04-27T06:51:42;102040.16;;;10.00;100.00
44140;BME280;29803;51.048;4.686;2023-04-27T06:54:13;102030.88;;;10.35;100.00
44140;BME280;29803;51.048;4.686;2023-04-27T06:56:43;102025.66;;;10.12;100.00
44140;BME280;29803;51.048;4.686;2023-04-27T06:59:14;102029.91;;;9.64;100.00
44140;BME280;29803;51.048;4.686;2023-04-27T07:01:44;102029.47;;;9.58;100.00
44140;BME280;29803;51.048;4.686;2023-04-27T07:04:15;102032.16;;;10.10;100.00
44140;BME280;29803;51.048;4.686;2023-04-27T07:06:45;102037.66;;;10.39;100.00
44140;BME280;29803;51.048;4.686;2023-04-27T07:09:16;102032.97;;;10.31;100.00
44140;BME280;29803;51.048;4.686;2023-04-27T07:11:46;102041.28;;;10.28;100.00
44140;BME280;29803;51.048;4.686;2023-04-27T07:14:17;102036.84;;;10.48;100.00
44140;BME280;29803;51.048;4.686;2023-04-27T07:16:47;102027.34;;;11.13;100.00
44140;BME280;29803;51.048;4.686;2023-04-27T07:19:17;102019.69;;;11.57;100.00
44140;BME280;29803;51.048;4.686;2023-04-27T07:21:48;102019.34;;;11.80;100.00
44140;BME280;29803;51.048;4.686;2023-04-27T07:24:19;102017.38;;;11.82;100.00
44140;BME280;29803;51.048;4.686;2023-04-27T07:26:50;102017.25;;;12.21;100.00
44140;BME280;29803;51.048;4.686;2023-04-27T07:29:20;102019.59;;;12.61;100.00
44140;BME280;29803;51.048;4.686;2023-04-27T07:31:51;102017.03;;;12.59;100.00
44140;BME280;29803;51.048;4.686;2023-04-27T07:34:22;102022.63;;;12.76;100.00
44140;BME280;29803;51.048;4.686;2023-04-27T07:36:52;102020.84;;;13.02;100.00
44140;BME280;29803;51.048;4.686;2023-04-27T07:39:23;102020.63;;;13.13;100.00
44140;BME280;29803;51.048;4.686;2023-04-27T07:41:55;102022.31;;;13.14;100.00
44140;BME280;29803;51.048;4.686;2023-04-27T07:44:27;102021.34;;;13.33;100.00
44140;BME280;29803;51.048;4.686;2023-04-27T07:46:57;102021.00;;;13.18;100.00
44140;BME280;29803;51.048;4.686;2023-04-27T07:49:28;102007.09;;;13.05;100.00
44140;BME280;29803;51.048;4.686;2023-04-27T07:51:58;102004.22;;;12.89;100.00
44140;BME280;29803;51.048;4.686;2023-04-27T07:54:29;102004.88;;;13.01;100.00
44140;BME280;29803;51.048;4.686;2023-04-27T07:56:59;102000.56;;;13.26;100.00
44140;BME280;29803;51.048;4.686;2023-04-27T07:59:31;102004.25;;;13.68;100.00
44140;BME280;29803;51.048;4.686;2023-04-27T08:02:01;102007.41;;;13.64;100.00
44140;BME280;29803;51.048;4.686;2023-04-27T08:04:32;102006.97;;;14.03;100.00
44140;BME280;29803;51.048;4.686;2023-04-27T08:07:02;102016.56;;;13.97;100.00
44140;BME280;29803;51.048;4.686;2023-04-27T08:09:33;102011.22;;;13.79;100.00
44140;BME280;29803;51.048;4.686;2023-04-27T08:12:03;102009.63;;;13.94;100.00
44140;BME280;29803;51.048;4.686;2023-04-27T08:14:34;102012.16;;;13.70;100.00
44140;BME280;29803;51.048;4.686;2023-04-27T08:17:05;102006.66;;;13.80;100.00
44140;BME280;29803;51.048;4.686;2023-04-27T08:19:36;102007.81;;;14.03;100.00
44140;BME280;29803;51.048;4.686;2023-04-27T08:22:06;102008.59;;;14.21;100.00
44140;BME280;29803;51.048;4.686;2023-04-27T08:24:40;102010.69;;;14.36;100.00
44140;BME280;29803;51.048;4.686;2023-04-27T08:27:10;102001.22;;;14.32;100.00
44140;BME280;29803;51.048;4.686;2023-04-27T08:32:30;102003.56;;;14.35;100.00
44140;BME280;29803;51.048;4.686;2023-04-27T08:35:01;102004.84;;;14.48;100.00
44140;BME280;29803;51.048;4.686;2023-04-27T08:37:31;101988.25;;;14.43;100.00
44140;BME280;29803;51.048;4.686;2023-04-27T08:45:37;101990.13;;;14.43;100.00
44140;BME280;29803;51.048;4.686;2023-04-27T08:48:08;101984.59;;;14.53;100.00
44140;BME280;29803;51.048;4.686;2023-04-27T08:50:38;101999.06;;;14.43;97.60
44140;BME280;29803;51.048;4.686;2023-04-27T08:55:59;101987.53;;;14.84;100.00
44140;BME280;29803;51.048;4.686;2023-04-27T09:01:20;101990.31;;;14.15;100.00
44140;BME280;29803;51.048;4.686;2023-04-27T09:06:38;101992.75;;;14.27;99.86
44140;BME280;29803;51.048;4.686;2023-04-27T09:09:09;101985.44;;;14.11;99.80
44140;BME280;29803;51.048;4.686;2023-04-27T09:11:40;101983.81;;;14.26;96.35
44140;BME280;29803;51.048;4.686;2023-04-27T09:17:04;101988.69;;;14.22;100.00
44140;BME280;29803;51.048;4.686;2023-04-27T09:19:34;101989.16;;;13.84;100.00
44140;BME280;29803;51.048;4.686;2023-04-27T09:22:06;101982.50;;;13.96;99.20
44140;BME280;29803;51.048;4.686;2023-04-27T09:24:36;101984.88;;;13.99;96.46
44140;BME280;29803;51.048;4.686;2023-04-27T09:27:07;101982.75;;;13.85;91.68
44140;BME280;29803;51.048;4.686;2023-04-27T09:29:38;101977.16;;;13.78;96.68
44140;BME280;29803;51.048;4.686;2023-04-27T09:32:18;101970.25;;;14.10;94.96
44140;BME280;29803;51.048;4.686;2023-04-27T09:34:49;101969.28;;;14.19;96.69
44140;BME280;29803;51.048;4.686;2023-04-27T09:37:20;101962.22;;;14.76;100.00
44140;BME280;29803;51.048;4.686;2023-04-27T09:39:51;101964.56;;;14.80;85.81
44140;BME280;29803;51.048;4.686;2023-04-27T09:42:21;101957.09;;;14.65;91.15
44140;BME280;29803;51.048;4.686;2023-04-27T09:44:52;101961.03;;;14.95;96.88
44140;BME280;29803;51.048;4.686;2023-04-27T09:47:23;101973.72;;;15.27;93.64
44140;BME280;29803;51.048;4.686;2023-04-27T09:49:54;101968.63;;;15.57;87.88
44140;BME280;29803;51.048;4.686;2023-04-27T09:52:24;101970.50;;;14.83;79.99
44140;BME280;29803;51.048;4.686;2023-04-27T09:54:55;101975.06;;;15.32;92.66
44140;BME280;29803;51.048;4.686;2023-04-27T10:00:19;101967.59;;;15.74;87.39
44140;BME280;29803;51.048;4.686;2023-04-27T10:03:06;101964.75;;;15.51;82.21
44140;BME280;29803;51.048;4.686;2023-04-27T10:05:40;101965.91;;;15.65;80.70
44140;BME280;29803;51.048;4.686;2023-04-27T10:08:12;101964.72;;;15.60;77.61
44140;BME280;29803;51.048;4.686;2023-04-27T10:13:30;101961.81;;;15.61;71.69
44140;BME280;29803;51.048;4.686;2023-04-27T10:16:13;101956.44;;;15.53;72.66
44140;BME280;29803;51.048;4.686;2023-04-27T10:18:54;101946.84;;;15.26;80.85
44140;BME280;29803;51.048;4.686;2023-04-27T10:21:25;101949.72;;;15.00;71.18
44140;BME280;29803;51.048;4.686;2023-04-27T10:23:56;101943.13;;;15.11;76.70
44140;BME280;29803;51.048;4.686;2023-04-27T10:26:35;101934.66;;;14.57;79.31
44140;BME280;29803;51.048;4.686;2023-04-27T10:29:14;101933.84;;;15.05;80.03
44140;BME280;29803;51.048;4.686;2023-04-27T10:31:47;101936.56;;;14.89;74.32
44140;BME280;29803;51.048;4.686;2023-04-27T10:34:17;101937.75;;;15.27;71.60
44140;BME280;29803;51.048;4.686;2023-04-27T10:36:50;101931.31;;;15.03;71.49
44140;BME280;29803;51.048;4.686;2023-04-27T10:39:34;101943.31;;;15.17;70.31
44140;BME280;29803;51.048;4.686;2023-04-27T10:42:05;101937.06;;;15.09;65.05
44140;BME280;29803;51.048;4.686;2023-04-27T10:44:36;101935.69;;;15.29;70.82
44140;BME280;29803;51.048;4.686;2023-04-27T10:49:56;101913.59;;;14.93;69.38
44140;BME280;29803;51.048;4.686;2023-04-27T10:52:28;101916.09;;;15.19;81.67
44140;BME280;29803;51.048;4.686;2023-04-27T10:55:11;101918.59;;;15.45;77.02
44140;BME280;29803;51.048;4.686;2023-04-27T11:00:32;101904.63;;;15.09;72.89
44140;BME280;29803;51.048;4.686;2023-04-27T11:03:14;101901.41;;;13.97;88.84
44140;BME280;29803;51.048;4.686;2023-04-27T11:05:46;101909.63;;;13.88;86.54
44140;BME280;29803;51.048;4.686;2023-04-27T11:08:17;101896.97;;;13.88;85.06
44140;BME280;29803;51.048;4.686;2023-04-27T11:10:48;101892.75;;;14.44;81.24
44140;BME280;29803;51.048;4.686;2023-04-27T11:13:20;101886.34;;;14.37;73.72
44140;BME280;29803;51.048;4.686;2023-04-27T11:15:52;101885.28;;;14.22;71.80
44140;BME280;29803;51.048;4.686;2023-04-27T11:18:24;101891.69;;;14.29;67.51
44140;BME280;29803;51.048;4.686;2023-04-27T11:23:44;101898.38;;;14.67;71.42
44140;BME280;29803;51.048;4.686;2023-04-27T11:26:15;101883.53;;;14.71;70.98
44140;BME280;29803;51.048;4.686;2023-04-27T11:31:37;101879.78;;;14.48;76.18
44140;BME280;29803;51.048;4.686;2023-04-27T11:34:08;101883.53;;;15.04;80.08
44140;BME280;29803;51.048;4.686;2023-04-27T11:36:38;101883.88;;;15.01;74.79
44140;BME280;29803;51.048;4.686;2023-04-27T11:42:13;101892.13;;;15.08;70.88
44140;BME280;29803;51.048;4.686;2023-04-27T11:44:54;101889.28;;;14.93;68.06
44140;BME280;29803;51.048;4.686;2023-04-27T11:47:26;101892.97;;;15.16;74.45
44140;BME280;29803;51.048;4.686;2023-04-27T11:49:57;101880.09;;;15.35;73.58
44140;BME280;29803;51.048;4.686;2023-04-27T11:52:30;101878.34;;;15.50;80.61
44140;BME280;29803;51.048;4.686;2023-04-27T11:55:02;101876.59;;;15.10;73.82
44140;BME280;29803;51.048;4.686;2023-04-27T11:57:34;101886.56;;;14.68;69.72
44140;BME280;29803;51.048;4.686;2023-04-27T12:00:05;101884.00;;;14.50;70.64
44140;BME280;29803;51.048;4.686;2023-04-27T12:02:40;101875.41;;;14.80;73.29
44140;BME280;29803;51.048;4.686;2023-04-27T12:05:11;101875.22;;;15.22;73.08
44140;BME280;29803;51.048;4.686;2023-04-27T12:07:41;101862.50;;;15.39;70.93
44140;BME280;29803;51.048;4.686;2023-04-27T12:10:12;101870.63;;;15.31;69.11
44140;BME280;29803;51.048;4.686;2023-04-27T12:12:42;101869.59;;;15.48;70.06
44140;BME280;29803;51.048;4.686;2023-04-27T12:15:13;101858.41;;;15.51;66.60
44140;BME280;29803;51.048;4.686;2023-04-27T12:17:43;101853.78;;;15.76;79.52
44140;BME280;29803;51.048;4.686;2023-04-27T12:20:14;101858.44;;;15.43;67.92
44140;BME280;29803;51.048;4.686;2023-04-27T12:22:44;101842.88;;;15.45;64.31
44140;BME280;29803;51.048;4.686;2023-04-27T12:25:14;101839.78;;;16.03;70.32
44140;BME280;29803;51.048;4.686;2023-04-27T12:27:46;101845.09;;;15.89;68.99
44140;BME280;29803;51.048;4.686;2023-04-27T12:30:17;101849.94;;;15.54;64.38
44140;BME280;29803;51.048;4.686;2023-04-27T12:32:47;101854.00;;;15.58;61.50
44140;BME280;29803;51.048;4.686;2023-04-27T12:35:18;101846.94;;;15.41;54.38
44140;BME280;29803;51.048;4.686;2023-04-27T12:37:48;101844.19;;;15.65;63.46
44140;BME280;29803;51.048;4.686;2023-04-27T12:40:19;101847.91;;;15.64;55.93
44140;BME280;29803;51.048;4.686;2023-04-27T12:42:50;101844.56;;;15.46;55.84
44140;BME280;29803;51.048;4.686;2023-04-27T12:45:20;101843.56;;;15.47;57.86
44140;BME280;29803;51.048;4.686;2023-04-27T12:47:50;101825.94;;;15.67;68.57
44140;BME280;29803;51.048;4.686;2023-04-27T12:50:22;101820.47;;;15.75;57.62
44140;BME280;29803;51.048;4.686;2023-04-27T12:52:52;101825.59;;;16.01;60.45
44140;BME280;29803;51.048;4.686;2023-04-27T12:55:23;101827.59;;;15.76;55.48
44140;BME280;29803;51.048;4.686;2023-04-27T12:57:54;101821.00;;;15.71;53.48
44140;BME280;29803;51.048;4.686;2023-04-27T13:00:27;101821.38;;;15.60;57.01
44140;BME280;29803;51.048;4.686;2023-04-27T13:02:58;101817.81;;;15.12;64.91
44140;BME280;29803;51.048;4.686;2023-04-27T13:05:29;101819.19;;;14.99;57.65
44140;BME280;29803;51.048;4.686;2023-04-27T13:07:59;101817.44;;;15.23;53.73
44140;BME280;29803;51.048;4.686;2023-04-27T13:10:29;101816.28;;;15.09;62.43
44140;BME280;29803;51.048;4.686;2023-04-27T13:13:01;101814.59;;;15.08;57.62
44140;BME280;29803;51.048;4.686;2023-04-27T13:15:32;101806.94;;;15.28;59.12
44140;BME280;29803;51.048;4.686;2023-04-27T13:18:02;101815.81;;;15.53;53.84
44140;BME280;29803;51.048;4.686;2023-04-27T13:20:35;101802.75;;;15.73;61.56
44140;BME280;29803;51.048;4.686;2023-04-27T13:23:07;101813.03;;;15.77;55.96
44140;BME280;29803;51.048;4.686;2023-04-27T13:25:37;101799.72;;;15.60;57.42
44140;BME280;29803;51.048;4.686;2023-04-27T13:28:07;101797.88;;;15.91;63.91
44140;BME280;29803;51.048;4.686;2023-04-27T13:30:38;101788.16;;;16.05;57.92
44140;BME280;29803;51.048;4.686;2023-04-27T13:33:09;101795.16;;;16.22;53.15
44140;BME280;29803;51.048;4.686;2023-04-27T13:35:41;101781.91;;;16.50;53.19
44140;BME280;29803;51.048;4.686;2023-04-27T13:38:12;101779.97;;;16.59;54.23
44140;BME280;29803;51.048;4.686;2023-04-27T13:40:42;101767.84;;;16.70;60.99
44140;BME280;29803;51.048;4.686;2023-04-27T13:43:13;101765.53;;;16.67;54.09
44140;BME280;29803;51.048;4.686;2023-04-27T13:45:43;101764.63;;;16.51;52.32
44140;BME280;29803;51.048;4.686;2023-04-27T13:48:14;101761.56;;;16.54;55.38
44140;BME280;29803;51.048;4.686;2023-04-27T13:50:44;101759.97;;;16.60;51.42
44140;BME280;29803;51.048;4.686;2023-04-27T13:53:15;101754.56;;;16.60;54.86